sensor_id;sensor_type;location;lat;lon;timestamp;temperature;humidity
20672;DHT22;10495;50.922;4.760;2023-06-26T00:01:51;25.30;55.50
20672;DHT22;10495;50.922;4.760;2023-06-26T00:04:17;25.30;55.60
20672;DHT22;10495;50.922;4.760;2023-06-26T00:06:42;25.20;55.80
20672;DHT22;10495;50.922;4.760;2023-06-26T00:09:08;25.10;55.80
20672;DHT22;10495;50.922;4.760;2023-06-26T00:11:34;25.00;55.70
20672;DHT22;10495;50.922;4.760;2023-06-26T00:14:00;25.00;55.90
20672;DHT22;10495;50.922;4.760;2023-06-26T00:16:27;24.90;55.90
20672;DHT22;10495;50.922;4.760;2023-06-26T00:18:53;24.80;56.20
20672;DHT22;10495;50.922;4.760;2023-06-26T00:21:19;24.70;56.20
20672;DHT22;10495;50.922;4.760;2023-06-26T00:23:45;24.70;56.10
20672;DHT22;10495;50.922;4.760;2023-06-26T00:26:11;24.70;56.20
20672;DHT22;10495;50.922;4.760;2023-06-26T00:28:37;24.60;56.50
20672;DHT22;10495;50.922;4.760;2023-06-26T00:31:03;24.50;56.50
20672;DHT22;10495;50.922;4.760;2023-06-26T00:33:28;24.60;56.60
20672;DHT22;10495;50.922;4.760;2023-06-26T00:35:54;24.70;56.50
20672;DHT22;10495;50.922;4.760;2023-06-26T00:38:20;24.70;56.50
20672;DHT22;10495;50.922;4.760;2023-06-26T00:40:46;24.60;56.30
20672;DHT22;10495;50.922;4.760;2023-06-26T00:43:12;24.50;56.50
20672;DHT22;10495;50.922;4.760;2023-06-26T00:45:37;24.40;56.30
20672;DHT22;10495;50.922;4.760;2023-06-26T00:48:03;24.40;56.40
20672;DHT22;10495;50.922;4.760;2023-06-26T00:50:29;24.30;56.50
20672;DHT22;10495;50.922;4.760;2023-06-26T00:52:55;24.20;56.60
20672;DHT22;10495;50.922;4.760;2023-06-26T00:55:29;24.20;56.70
20672;DHT22;10495;50.922;4.760;2023-06-26T00:57:54;24.10;56.80
20672;DHT22;10495;50.922;4.760;2023-06-26T01:00:20;24.30;56.70
20672;DHT22;10495;50.922;4.760;2023-06-26T01:02:46;24.30;56.80
20672;DHT22;10495;50.922;4.760;2023-06-26T01:05:13;24.30;56.90
20672;DHT22;10495;50.922;4.760;2023-06-26T01:07:47;24.30;56.70
20672;DHT22;10495;50.922;4.760;2023-06-26T01:10:13;24.10;56.70
20672;DHT22;10495;50.922;4.760;2023-06-26T01:12:39;24.10;56.90
20672;DHT22;10495;50.922;4.760;2023-06-26T01:15:05;24.00;57.20
20672;DHT22;10495;50.922;4.760;2023-06-26T01:17:31;23.90;56.90
20672;DHT22;10495;50.922;4.760;2023-06-26T01:20:01;24.00;56.60
20672;DHT22;10495;50.922;4.760;2023-06-26T01:27:45;23.80;55.80
20672;DHT22;10495;50.922;4.760;2023-06-26T01:30:12;23.70;55.60
20672;DHT22;10495;50.922;4.760;2023-06-26T01:32:39;23.60;55.60
20672;DHT22;10495;50.922;4.760;2023-06-26T01:35:07;23.50;55.70
20672;DHT22;10495;50.922;4.760;2023-06-26T01:37:33;23.40;55.80
20672;DHT22;10495;50.922;4.760;2023-06-26T01:39:58;23.30;55.80
20672;DHT22;10495;50.922;4.760;2023-06-26T01:42:24;23.30;55.90
20672;DHT22;10495;50.922;4.760;2023-06-26T01:44:50;23.20;55.90
20672;DHT22;10495;50.922;4.760;2023-06-26T01:47:22;23.10;56.20
20672;DHT22;10495;50.922;4.760;2023-06-26T01:50:05;23.30;56.10
20672;DHT22;10495;50.922;4.760;2023-06-26T01:55:28;23.00;56.60
20672;DHT22;10495;50.922;4.760;2023-06-26T01:57:58;23.10;57.00
20672;DHT22;10495;50.922;4.760;2023-06-26T02:00:25;23.20;56.80
20672;DHT22;10495;50.922;4.760;2023-06-26T02:02:52;23.10;57.00
20672;DHT22;10495;50.922;4.760;2023-06-26T02:05:17;23.10;57.20
20672;DHT22;10495;50.922;4.760;2023-06-26T02:07:43;23.10;57.30
20672;DHT22;10495;50.922;4.760;2023-06-26T02:10:09;23.00;57.30
20672;DHT22;10495;50.922;4.760;2023-06-26T02:12:36;22.90;57.50
20672;DHT22;10495;50.922;4.760;2023-06-26T02:15:02;22.90;57.80
20672;DHT22;10495;50.922;4.760;2023-06-26T02:17:28;22.80;57.80
20672;DHT22;10495;50.922;4.760;2023-06-26T02:19:53;22.70;57.90
20672;DHT22;10495;50.922;4.760;2023-06-26T02:22:19;22.70;58.00
20672;DHT22;10495;50.922;4.760;2023-06-26T02:24:45;22.70;58.10
20672;DHT22;10495;50.922;4.760;2023-06-26T02:27:11;22.50;58.30
20672;DHT22;10495;50.922;4.760;2023-06-26T02:29:36;22.60;58.40
20672;DHT22;10495;50.922;4.760;2023-06-26T02:32:02;22.60;58.40
20672;DHT22;10495;50.922;4.760;2023-06-26T02:34:28;22.70;58.60
20672;DHT22;10495;50.922;4.760;2023-06-26T02:36:54;22.70;58.70
20672;DHT22;10495;50.922;4.760;2023-06-26T02:39:20;22.60;59.10
20672;DHT22;10495;50.922;4.760;2023-06-26T02:41:46;22.50;59.00
20672;DHT22;10495;50.922;4.760;2023-06-26T02:44:12;22.50;59.20
20672;DHT22;10495;50.922;4.760;2023-06-26T02:46:38;22.40;59.60
20672;DHT22;10495;50.922;4.760;2023-06-26T02:49:04;22.40;59.60
20672;DHT22;10495;50.922;4.760;2023-06-26T02:51:31;22.30;59.70
20672;DHT22;10495;50.922;4.760;2023-06-26T02:53:57;22.30;60.00
20672;DHT22;10495;50.922;4.760;2023-06-26T02:56:22;22.20;60.30
20672;DHT22;10495;50.922;4.760;2023-06-26T02:58:48;22.20;60.60
20672;DHT22;10495;50.922;4.760;2023-06-26T03:01:14;22.10;60.70
20672;DHT22;10495;50.922;4.760;2023-06-26T03:03:41;22.10;61.00
20672;DHT22;10495;50.922;4.760;2023-06-26T03:06:07;22.10;61.30
20672;DHT22;10495;50.922;4.760;2023-06-26T03:08:34;22.20;61.80
20672;DHT22;10495;50.922;4.760;2023-06-26T03:11:00;22.30;61.80
20672;DHT22;10495;50.922;4.760;2023-06-26T03:13:26;22.10;63.60
20672;DHT22;10495;50.922;4.760;2023-06-26T03:15:51;22.10;64.20
20672;DHT22;10495;50.922;4.760;2023-06-26T03:18:17;22.00;64.40
20672;DHT22;10495;50.922;4.760;2023-06-26T03:20:42;22.00;65.00
20672;DHT22;10495;50.922;4.760;2023-06-26T03:23:08;22.00;65.10
20672;DHT22;10495;50.922;4.760;2023-06-26T03:25:34;22.00;65.10
20672;DHT22;10495;50.922;4.760;2023-06-26T03:27:59;22.10;65.90
20672;DHT22;10495;50.922;4.760;2023-06-26T03:30:25;22.00;66.60
20672;DHT22;10495;50.922;4.760;2023-06-26T03:32:50;21.90;66.90
20672;DHT22;10495;50.922;4.760;2023-06-26T03:35:16;21.90;67.20
20672;DHT22;10495;50.922;4.760;2023-06-26T03:37:41;21.80;67.90
20672;DHT22;10495;50.922;4.760;2023-06-26T03:40:08;21.80;68.20
20672;DHT22;10495;50.922;4.760;2023-06-26T03:42:33;21.90;68.60
20672;DHT22;10495;50.922;4.760;2023-06-26T03:44:59;21.90;68.80
20672;DHT22;10495;50.922;4.760;2023-06-26T03:47:24;21.90;68.90
20672;DHT22;10495;50.922;4.760;2023-06-26T03:49:50;21.80;69.10
20672;DHT22;10495;50.922;4.760;2023-06-26T03:52:16;21.80;69.60
20672;DHT22;10495;50.922;4.760;2023-06-26T03:54:41;21.80;69.90
20672;DHT22;10495;50.922;4.760;2023-06-26T03:57:07;21.80;69.90
20672;DHT22;10495;50.922;4.760;2023-06-26T03:59:32;21.80;70.10
20672;DHT22;10495;50.922;4.760;2023-06-26T04:01:58;21.70;70.70
20672;DHT22;10495;50.922;4.760;2023-06-26T04:04:24;21.60;71.00
20672;DHT22;10495;50.922;4.760;2023-06-26T04:06:49;21.60;71.50
20672;DHT22;10495;50.922;4.760;2023-06-26T04:09:16;21.60;71.60
20672;DHT22;10495;50.922;4.760;2023-06-26T04:11:41;21.80;71.50
20672;DHT22;10495;50.922;4.760;2023-06-26T04:14:07;21.70;72.10
20672;DHT22;10495;50.922;4.760;2023-06-26T04:16:32;21.70;71.90
20672;DHT22;10495;50.922;4.760;2023-06-26T04:18:58;21.60;72.10
20672;DHT22;10495;50.922;4.760;2023-06-26T04:21:24;21.50;72.70
20672;DHT22;10495;50.922;4.760;2023-06-26T04:23:52;21.50;72.60
20672;DHT22;10495;50.922;4.760;2023-06-26T04:26:18;21.40;73.10
20672;DHT22;10495;50.922;4.760;2023-06-26T04:28:43;21.50;73.30
20672;DHT22;10495;50.922;4.760;2023-06-26T04:31:09;21.60;72.60
20672;DHT22;10495;50.922;4.760;2023-06-26T04:33:36;21.60;73.00
20672;DHT22;10495;50.922;4.760;2023-06-26T04:36:05;21.60;73.10
20672;DHT22;10495;50.922;4.760;2023-06-26T04:38:34;21.50;73.70
20672;DHT22;10495;50.922;4.760;2023-06-26T04:41:01;21.40;74.10
20672;DHT22;10495;50.922;4.760;2023-06-26T04:43:27;21.50;74.00
20672;DHT22;10495;50.922;4.760;2023-06-26T04:45:52;21.50;73.80
20672;DHT22;10495;50.922;4.760;2023-06-26T04:48:18;21.40;73.60
20672;DHT22;10495;50.922;4.760;2023-06-26T04:50:43;21.60;73.00
20672;DHT22;10495;50.922;4.760;2023-06-26T04:53:11;21.80;72.60
20672;DHT22;10495;50.922;4.760;2023-06-26T04:55:36;21.80;72.20
20672;DHT22;10495;50.922;4.760;2023-06-26T04:58:02;21.70;73.20
20672;DHT22;10495;50.922;4.760;2023-06-26T05:00:28;21.90;71.90
20672;DHT22;10495;50.922;4.760;2023-06-26T05:02:53;21.90;72.00
20672;DHT22;10495;50.922;4.760;2023-06-26T05:05:27;22.00;71.30
20672;DHT22;10495;50.922;4.760;2023-06-26T05:07:56;22.10;72.00
20672;DHT22;10495;50.922;4.760;2023-06-26T05:10:22;22.00;72.20
20672;DHT22;10495;50.922;4.760;2023-06-26T05:12:48;22.20;72.60
20672;DHT22;10495;50.922;4.760;2023-06-26T05:15:13;22.40;71.70
20672;DHT22;10495;50.922;4.760;2023-06-26T05:17:39;22.80;69.60
20672;DHT22;10495;50.922;4.760;2023-06-26T05:20:05;23.00;69.00
20672;DHT22;10495;50.922;4.760;2023-06-26T05:22:32;23.40;68.30
20672;DHT22;10495;50.922;4.760;2023-06-26T05:24:59;23.70;67.30
20672;DHT22;10495;50.922;4.760;2023-06-26T05:27:26;23.80;65.60
20672;DHT22;10495;50.922;4.760;2023-06-26T05:29:52;24.10;65.10
20672;DHT22;10495;50.922;4.760;2023-06-26T05:32:18;24.30;65.10
20672;DHT22;10495;50.922;4.760;2023-06-26T05:34:47;24.70;62.90
20672;DHT22;10495;50.922;4.760;2023-06-26T05:37:23;24.80;62.00
20672;DHT22;10495;50.922;4.760;2023-06-26T05:39:50;25.00;61.40
20672;DHT22;10495;50.922;4.760;2023-06-26T05:42:16;25.20;60.50
20672;DHT22;10495;50.922;4.760;2023-06-26T05:44:42;25.40;59.70
20672;DHT22;10495;50.922;4.760;2023-06-26T05:47:07;25.50;59.40
20672;DHT22;10495;50.922;4.760;2023-06-26T05:49:33;25.60;59.10
20672;DHT22;10495;50.922;4.760;2023-06-26T05:51:59;25.70;59.00
20672;DHT22;10495;50.922;4.760;2023-06-26T05:54:25;25.50;58.50
20672;DHT22;10495;50.922;4.760;2023-06-26T05:56:56;25.70;59.10
20672;DHT22;10495;50.922;4.760;2023-06-26T05:59:24;25.50;58.60
20672;DHT22;10495;50.922;4.760;2023-06-26T06:01:51;25.70;58.80
20672;DHT22;10495;50.922;4.760;2023-06-26T06:04:17;25.90;58.30
20672;DHT22;10495;50.922;4.760;2023-06-26T06:06:43;26.20;57.80
20672;DHT22;10495;50.922;4.760;2023-06-26T06:09:08;26.20;57.70
20672;DHT22;10495;50.922;4.760;2023-06-26T06:11:34;26.30;58.00
20672;DHT22;10495;50.922;4.760;2023-06-26T06:14:00;26.60;58.30
20672;DHT22;10495;50.922;4.760;2023-06-26T06:16:26;26.50;56.90
20672;DHT22;10495;50.922;4.760;2023-06-26T06:18:54;26.70;57.20
20672;DHT22;10495;50.922;4.760;2023-06-26T06:21:20;26.90;57.30
20672;DHT22;10495;50.922;4.760;2023-06-26T06:23:45;27.20;56.40
20672;DHT22;10495;50.922;4.760;2023-06-26T06:26:11;27.10;57.10
20672;DHT22;10495;50.922;4.760;2023-06-26T06:28:36;27.40;57.10
20672;DHT22;10495;50.922;4.760;2023-06-26T06:31:02;27.70;55.90
20672;DHT22;10495;50.922;4.760;2023-06-26T06:33:28;27.80;56.30
20672;DHT22;10495;50.922;4.760;2023-06-26T06:35:53;27.90;55.10
20672;DHT22;10495;50.922;4.760;2023-06-26T06:38:19;27.60;55.60
20672;DHT22;10495;50.922;4.760;2023-06-26T06:40:45;27.80;55.60
20672;DHT22;10495;50.922;4.760;2023-06-26T06:43:10;27.80;56.00
20672;DHT22;10495;50.922;4.760;2023-06-26T06:45:36;27.90;56.10
20672;DHT22;10495;50.922;4.760;2023-06-26T06:48:04;27.60;54.70
20672;DHT22;10495;50.922;4.760;2023-06-26T06:50:29;27.60;55.90
20672;DHT22;10495;50.922;4.760;2023-06-26T06:52:55;27.80;55.60
20672;DHT22;10495;50.922;4.760;2023-06-26T06:55:21;27.90;55.40
20672;DHT22;10495;50.922;4.760;2023-06-26T06:57:46;28.00;55.20
20672;DHT22;10495;50.922;4.760;2023-06-26T07:00:13;28.30;55.00
20672;DHT22;10495;50.922;4.760;2023-06-26T07:02:42;28.30;54.90
20672;DHT22;10495;50.922;4.760;2023-06-26T07:05:08;28.20;54.70
20672;DHT22;10495;50.922;4.760;2023-06-26T07:07:35;28.30;54.80
20672;DHT22;10495;50.922;4.760;2023-06-26T07:10:09;28.30;54.20
20672;DHT22;10495;50.922;4.760;2023-06-26T07:12:36;28.30;54.30
20672;DHT22;10495;50.922;4.760;2023-06-26T07:15:03;28.30;53.70
20672;DHT22;10495;50.922;4.760;2023-06-26T07:17:30;28.40;53.80
20672;DHT22;10495;50.922;4.760;2023-06-26T07:19:56;28.50;54.00
20672;DHT22;10495;50.922;4.760;2023-06-26T07:22:21;28.00;53.80
20672;DHT22;10495;50.922;4.760;2023-06-26T07:24:47;28.00;53.80
20672;DHT22;10495;50.922;4.760;2023-06-26T07:27:17;27.40;54.20
20672;DHT22;10495;50.922;4.760;2023-06-26T07:29:44;27.20;54.50
20672;DHT22;10495;50.922;4.760;2023-06-26T07:32:10;27.00;54.60
20672;DHT22;10495;50.922;4.760;2023-06-26T07:34:35;26.80;55.40
20672;DHT22;10495;50.922;4.760;2023-06-26T07:37:01;27.30;54.80
20672;DHT22;10495;50.922;4.760;2023-06-26T07:39:27;27.50;54.80
20672;DHT22;10495;50.922;4.760;2023-06-26T07:41:52;27.80;55.20
20672;DHT22;10495;50.922;4.760;2023-06-26T07:44:18;28.00;54.30
20672;DHT22;10495;50.922;4.760;2023-06-26T07:46:43;27.80;54.20
20672;DHT22;10495;50.922;4.760;2023-06-26T07:49:10;28.00;54.00
20672;DHT22;10495;50.922;4.760;2023-06-26T07:51:36;28.10;54.30
20672;DHT22;10495;50.922;4.760;2023-06-26T07:54:01;28.00;53.40
20672;DHT22;10495;50.922;4.760;2023-06-26T07:56:27;27.90;53.10
20672;DHT22;10495;50.922;4.760;2023-06-26T07:58:53;27.80;53.90
20672;DHT22;10495;50.922;4.760;2023-06-26T08:01:18;28.00;54.20
20672;DHT22;10495;50.922;4.760;2023-06-26T08:03:44;27.30;53.20
20672;DHT22;10495;50.922;4.760;2023-06-26T08:06:09;26.90;53.30
20672;DHT22;10495;50.922;4.760;2023-06-26T08:08:35;26.80;54.00
20672;DHT22;10495;50.922;4.760;2023-06-26T08:11:01;27.30;54.30
20672;DHT22;10495;50.922;4.760;2023-06-26T08:13:27;27.80;54.50
20672;DHT22;10495;50.922;4.760;2023-06-26T08:15:52;27.70;54.30
20672;DHT22;10495;50.922;4.760;2023-06-26T08:18:18;27.80;53.50
20672;DHT22;10495;50.922;4.760;2023-06-26T08:20:44;28.30;54.50
20672;DHT22;10495;50.922;4.760;2023-06-26T08:23:09;27.90;52.00
20672;DHT22;10495;50.922;4.760;2023-06-26T08:25:35;27.80;52.80
20672;DHT22;10495;50.922;4.760;2023-06-26T08:28:01;28.10;53.60
20672;DHT22;10495;50.922;4.760;2023-06-26T08:30:26;28.30;52.90
20672;DHT22;10495;50.922;4.760;2023-06-26T08:32:57;28.30;53.30
20672;DHT22;10495;50.922;4.760;2023-06-26T08:35:23;28.60;52.70
20672;DHT22;10495;50.922;4.760;2023-06-26T08:37:48;28.80;52.60
20672;DHT22;10495;50.922;4.760;2023-06-26T08:40:17;29.40;52.90
20672;DHT22;10495;50.922;4.760;2023-06-26T08:42:46;29.90;53.20
20672;DHT22;10495;50.922;4.760;2023-06-26T08:45:12;29.90;51.50
20672;DHT22;10495;50.922;4.760;2023-06-26T08:47:38;30.20;52.10
20672;DHT22;10495;50.922;4.760;2023-06-26T08:50:08;30.20;52.10
20672;DHT22;10495;50.922;4.760;2023-06-26T08:53:07;30.40;51.10
20672;DHT22;10495;50.922;4.760;2023-06-26T08:55:36;30.60;51.70
20672;DHT22;10495;50.922;4.760;2023-06-26T08:58:04;30.70;52.10
20672;DHT22;10495;50.922;4.760;2023-06-26T09:00:30;31.20;51.10
20672;DHT22;10495;50.922;4.760;2023-06-26T09:02:56;31.10;51.20
20672;DHT22;10495;50.922;4.760;2023-06-26T09:05:22;31.00;50.90
20672;DHT22;10495;50.922;4.760;2023-06-26T09:07:48;30.80;50.50
20672;DHT22;10495;50.922;4.760;2023-06-26T09:10:13;30.60;50.40
20672;DHT22;10495;50.922;4.760;2023-06-26T09:12:39;30.60;51.20
20672;DHT22;10495;50.922;4.760;2023-06-26T09:15:06;30.20;51.10
20672;DHT22;10495;50.922;4.760;2023-06-26T09:17:38;30.30;51.00
20672;DHT22;10495;50.922;4.760;2023-06-26T09:20:04;30.60;51.40
20672;DHT22;10495;50.922;4.760;2023-06-26T09:22:34;30.60;51.40
20672;DHT22;10495;50.922;4.760;2023-06-26T09:25:01;30.60;50.20
20672;DHT22;10495;50.922;4.760;2023-06-26T09:27:26;30.30;50.60
20672;DHT22;10495;50.922;4.760;2023-06-26T09:29:53;29.90;50.50
20672;DHT22;10495;50.922;4.760;2023-06-26T09:32:18;29.60;50.90
20672;DHT22;10495;50.922;4.760;2023-06-26T09:34:44;29.80;50.00
20672;DHT22;10495;50.922;4.760;2023-06-26T09:37:12;29.70;49.80
20672;DHT22;10495;50.922;4.760;2023-06-26T09:39:38;29.30;51.10
20672;DHT22;10495;50.922;4.760;2023-06-26T09:42:04;29.50;52.10
20672;DHT22;10495;50.922;4.760;2023-06-26T09:44:33;29.80;50.40
20672;DHT22;10495;50.922;4.760;2023-06-26T09:46:59;29.30;49.10
20672;DHT22;10495;50.922;4.760;2023-06-26T09:49:27;29.00;48.70
20672;DHT22;10495;50.922;4.760;2023-06-26T09:51:53;28.70;49.60
20672;DHT22;10495;50.922;4.760;2023-06-26T09:54:21;28.60;50.70
20672;DHT22;10495;50.922;4.760;2023-06-26T09:56:47;29.00;51.30
20672;DHT22;10495;50.922;4.760;2023-06-26T09:59:13;29.50;50.10
20672;DHT22;10495;50.922;4.760;2023-06-26T10:01:42;29.60;48.90
20672;DHT22;10495;50.922;4.760;2023-06-26T10:04:10;28.70;49.00
20672;DHT22;10495;50.922;4.760;2023-06-26T10:06:47;28.50;49.80
20672;DHT22;10495;50.922;4.760;2023-06-26T10:09:17;29.20;50.00
20672;DHT22;10495;50.922;4.760;2023-06-26T10:14:21;30.30;48.80
20672;DHT22;10495;50.922;4.760;2023-06-26T10:16:49;30.60;48.70
20672;DHT22;10495;50.922;4.760;2023-06-26T10:19:18;30.90;47.40
20672;DHT22;10495;50.922;4.760;2023-06-26T10:21:51;30.30;47.70
20672;DHT22;10495;50.922;4.760;2023-06-26T10:24:18;30.10;47.90
20672;DHT22;10495;50.922;4.760;2023-06-26T10:26:45;30.40;48.40
20672;DHT22;10495;50.922;4.760;2023-06-26T10:29:15;30.40;47.90
20672;DHT22;10495;50.922;4.760;2023-06-26T10:31:45;29.90;47.70
20672;DHT22;10495;50.922;4.760;2023-06-26T10:34:12;30.00;49.30
20672;DHT22;10495;50.922;4.760;2023-06-26T10:36:38;30.00;49.30
20672;DHT22;10495;50.922;4.760;2023-06-26T10:39:05;30.00;49.40
20672;DHT22;10495;50.922;4.760;2023-06-26T10:41:39;30.00;47.20
20672;DHT22;10495;50.922;4.760;2023-06-26T10:44:11;29.70;47.70
20672;DHT22;10495;50.922;4.760;2023-06-26T10:46:53;29.30;48.30
20672;DHT22;10495;50.922;4.760;2023-06-26T10:49:29;28.70;47.40
20672;DHT22;10495;50.922;4.760;2023-06-26T10:51:55;28.50;47.70
20672;DHT22;10495;50.922;4.760;2023-06-26T10:54:29;27.40;48.10
20672;DHT22;10495;50.922;4.760;2023-06-26T10:56:56;27.30;48.60
20672;DHT22;10495;50.922;4.760;2023-06-26T10:59:24;26.80;49.20
20672;DHT22;10495;50.922;4.760;2023-06-26T11:02:00;26.70;49.00
20672;DHT22;10495;50.922;4.760;2023-06-26T11:07:21;26.10;48.50
20672;DHT22;10495;50.922;4.760;2023-06-26T11:10:14;25.80;48.50
20672;DHT22;10495;50.922;4.760;2023-06-26T11:12:43;25.70;48.30
20672;DHT22;10495;50.922;4.760;2023-06-26T11:15:09;25.70;48.90
20672;DHT22;10495;50.922;4.760;2023-06-26T11:17:36;25.80;48.70
20672;DHT22;10495;50.922;4.760;2023-06-26T11:20:03;25.90;49.30
20672;DHT22;10495;50.922;4.760;2023-06-26T11:22:31;25.80;48.30
20672;DHT22;10495;50.922;4.760;2023-06-26T11:24:59;26.10;49.00
20672;DHT22;10495;50.922;4.760;2023-06-26T11:27:41;26.50;49.50
20672;DHT22;10495;50.922;4.760;2023-06-26T11:30:09;27.00;49.00
20672;DHT22;10495;50.922;4.760;2023-06-26T11:32:39;27.20;48.10
20672;DHT22;10495;50.922;4.760;2023-06-26T11:35:05;27.40;47.90
20672;DHT22;10495;50.922;4.760;2023-06-26T11:37:31;27.30;48.30
20672;DHT22;10495;50.922;4.760;2023-06-26T11:39:58;26.90;48.30
20672;DHT22;10495;50.922;4.760;2023-06-26T11:42:23;26.90;48.80
20672;DHT22;10495;50.922;4.760;2023-06-26T11:44:50;26.80;48.50
20672;DHT22;10495;50.922;4.760;2023-06-26T11:47:18;27.20;48.60
20672;DHT22;10495;50.922;4.760;2023-06-26T11:49:45;27.20;48.10
20672;DHT22;10495;50.922;4.760;2023-06-26T11:52:12;27.10;48.60
20672;DHT22;10495;50.922;4.760;2023-06-26T11:54:38;26.70;48.70
20672;DHT22;10495;50.922;4.760;2023-06-26T11:57:04;26.40;49.20
20672;DHT22;10495;50.922;4.760;2023-06-26T12:02:00;26.60;49.50
20672;DHT22;10495;50.922;4.760;2023-06-26T12:04:25;26.50;48.60
20672;DHT22;10495;50.922;4.760;2023-06-26T12:06:52;26.70;49.10
20672;DHT22;10495;50.922;4.760;2023-06-26T12:09:23;26.70;48.50
20672;DHT22;10495;50.922;4.760;2023-06-26T12:11:53;26.40;47.90
20672;DHT22;10495;50.922;4.760;2023-06-26T12:14:20;25.90;47.70
20672;DHT22;10495;50.922;4.760;2023-06-26T12:16:47;25.60;47.90
20672;DHT22;10495;50.922;4.760;2023-06-26T12:19:13;25.90;49.00
20672;DHT22;10495;50.922;4.760;2023-06-26T12:24:17;26.40;47.50
20672;DHT22;10495;50.922;4.760;2023-06-26T12:26:45;26.40;47.50
20672;DHT22;10495;50.922;4.760;2023-06-26T12:29:13;26.60;48.00
20672;DHT22;10495;50.922;4.760;2023-06-26T12:31:49;26.80;47.10
20672;DHT22;10495;50.922;4.760;2023-06-26T12:34:19;26.60;46.50
20672;DHT22;10495;50.922;4.760;2023-06-26T12:36:49;26.00;47.30
20672;DHT22;10495;50.922;4.760;2023-06-26T12:39:20;25.90;47.10
20672;DHT22;10495;50.922;4.760;2023-06-26T12:41:55;26.10;47.80
20672;DHT22;10495;50.922;4.760;2023-06-26T12:44:26;26.60;47.90
20672;DHT22;10495;50.922;4.760;2023-06-26T12:46:59;26.80;47.30
20672;DHT22;10495;50.922;4.760;2023-06-26T12:49:34;26.90;47.20
20672;DHT22;10495;50.922;4.760;2023-06-26T12:52:00;26.90;47.10
20672;DHT22;10495;50.922;4.760;2023-06-26T12:54:27;26.90;47.30
20672;DHT22;10495;50.922;4.760;2023-06-26T12:56:53;27.00;47.70
20672;DHT22;10495;50.922;4.760;2023-06-26T12:59:19;27.10;47.40
20672;DHT22;10495;50.922;4.760;2023-06-26T13:01:45;27.30;47.40
20672;DHT22;10495;50.922;4.760;2023-06-26T13:04:11;27.00;46.50
20672;DHT22;10495;50.922;4.760;2023-06-26T13:06:36;26.80;46.10
20672;DHT22;10495;50.922;4.760;2023-06-26T13:09:02;26.90;46.30
20672;DHT22;10495;50.922;4.760;2023-06-26T13:11:32;27.00;46.80
20672;DHT22;10495;50.922;4.760;2023-06-26T13:13:58;27.20;46.60
20672;DHT22;10495;50.922;4.760;2023-06-26T13:16:24;27.30;47.40
20672;DHT22;10495;50.922;4.760;2023-06-26T13:18:50;27.30;46.80
20672;DHT22;10495;50.922;4.760;2023-06-26T13:21:16;27.20;46.40
20672;DHT22;10495;50.922;4.760;2023-06-26T13:23:43;26.50;46.70
20672;DHT22;10495;50.922;4.760;2023-06-26T13:26:08;26.30;47.00
20672;DHT22;10495;50.922;4.760;2023-06-26T13:28:35;26.60;47.40
20672;DHT22;10495;50.922;4.760;2023-06-26T13:31:00;26.70;47.30
20672;DHT22;10495;50.922;4.760;2023-06-26T13:33:26;26.70;47.50
20672;DHT22;10495;50.922;4.760;2023-06-26T13:35:55;26.50;47.90
20672;DHT22;10495;50.922;4.760;2023-06-26T13:38:21;26.40;47.40
20672;DHT22;10495;50.922;4.760;2023-06-26T13:40:53;26.80;48.10
20672;DHT22;10495;50.922;4.760;2023-06-26T13:43:20;26.70;47.20
20672;DHT22;10495;50.922;4.760;2023-06-26T13:45:46;26.80;47.90
20672;DHT22;10495;50.922;4.760;2023-06-26T13:48:12;26.80;47.40
20672;DHT22;10495;50.922;4.760;2023-06-26T13:50:38;26.80;46.60
20672;DHT22;10495;50.922;4.760;2023-06-26T13:53:04;26.40;46.60
20672;DHT22;10495;50.922;4.760;2023-06-26T13:55:29;26.40;47.10
20672;DHT22;10495;50.922;4.760;2023-06-26T13:57:56;26.50;47.50
20672;DHT22;10495;50.922;4.760;2023-06-26T14:00:22;26.70;46.80
20672;DHT22;10495;50.922;4.760;2023-06-26T14:02:48;26.70;46.60
20672;DHT22;10495;50.922;4.760;2023-06-26T14:05:14;26.30;45.90
20672;DHT22;10495;50.922;4.760;2023-06-26T14:07:40;26.50;47.30
20672;DHT22;10495;50.922;4.760;2023-06-26T14:10:06;26.50;46.70
20672;DHT22;10495;50.922;4.760;2023-06-26T14:12:32;26.40;47.10
20672;DHT22;10495;50.922;4.760;2023-06-26T14:14:58;25.90;47.00
20672;DHT22;10495;50.922;4.760;2023-06-26T14:17:24;25.60;48.00
20672;DHT22;10495;50.922;4.760;2023-06-26T14:19:52;25.80;47.80
20672;DHT22;10495;50.922;4.760;2023-06-26T14:22:18;26.30;47.50
20672;DHT22;10495;50.922;4.760;2023-06-26T14:24:43;26.10;47.90
20672;DHT22;10495;50.922;4.760;2023-06-26T14:27:09;26.10;47.50
20672;DHT22;10495;50.922;4.760;2023-06-26T14:29:36;26.30;48.20
20672;DHT22;10495;50.922;4.760;2023-06-26T14:32:02;26.20;48.00
20672;DHT22;10495;50.922;4.760;2023-06-26T14:34:27;26.20;48.00
20672;DHT22;10495;50.922;4.760;2023-06-26T14:36:53;26.00;48.00
20672;DHT22;10495;50.922;4.760;2023-06-26T14:39:18;26.10;47.40
20672;DHT22;10495;50.922;4.760;2023-06-26T14:41:44;26.00;47.10
20672;DHT22;10495;50.922;4.760;2023-06-26T14:44:10;25.80;48.20
20672;DHT22;10495;50.922;4.760;2023-06-26T14:46:36;26.00;49.00
20672;DHT22;10495;50.922;4.760;2023-06-26T14:49:03;26.10;47.90
20672;DHT22;10495;50.922;4.760;2023-06-26T14:51:28;26.20;48.00
20672;DHT22;10495;50.922;4.760;2023-06-26T14:53:54;26.20;47.80
20672;DHT22;10495;50.922;4.760;2023-06-26T14:56:20;26.10;47.10
20672;DHT22;10495;50.922;4.760;2023-06-26T14:58:45;26.00;47.70
20672;DHT22;10495;50.922;4.760;2023-06-26T15:01:12;26.20;47.40
20672;DHT22;10495;50.922;4.760;2023-06-26T15:03:41;26.20;47.40
20672;DHT22;10495;50.922;4.760;2023-06-26T15:06:06;26.00;47.90
20672;DHT22;10495;50.922;4.760;2023-06-26T15:08:32;25.90;48.20
20672;DHT22;10495;50.922;4.760;2023-06-26T15:10:57;26.10;48.00
20672;DHT22;10495;50.922;4.760;2023-06-26T15:13:23;26.10;48.30
20672;DHT22;10495;50.922;4.760;2023-06-26T15:15:49;25.80;47.70
20672;DHT22;10495;50.922;4.760;2023-06-26T15:18:15;25.90;48.20
20672;DHT22;10495;50.922;4.760;2023-06-26T15:20:40;26.00;48.70
20672;DHT22;10495;50.922;4.760;2023-06-26T15:23:06;26.00;47.40
20672;DHT22;10495;50.922;4.760;2023-06-26T15:25:31;25.90;47.30
20672;DHT22;10495;50.922;4.760;2023-06-26T15:28:00;25.80;48.00
20672;DHT22;10495;50.922;4.760;2023-06-26T15:30:26;25.90;48.20
20672;DHT22;10495;50.922;4.760;2023-06-26T15:32:51;26.20;48.10
20672;DHT22;10495;50.922;4.760;2023-06-26T15:35:17;26.30;47.70
20672;DHT22;10495;50.922;4.760;2023-06-26T15:37:42;26.30;48.40
20672;DHT22;10495;50.922;4.760;2023-06-26T15:40:08;25.70;48.00
20672;DHT22;10495;50.922;4.760;2023-06-26T15:42:48;25.50;48.50
20672;DHT22;10495;50.922;4.760;2023-06-26T15:45:15;25.50;48.20
20672;DHT22;10495;50.922;4.760;2023-06-26T15:47:43;25.10;48.70